sensor_id;sensor_type;location;lat;lon;timestamp;pressure;altitude;pressure_sealevel;temperature;humidity
33404;BME280;19751;40.274;18.268;2022-12-16T00:01:40;100630.84;;;16.64;100.00
33404;BME280;19751;40.274;18.268;2022-12-16T00:04:05;100624.59;;;16.64;100.00
33404;BME280;19751;40.274;18.268;2022-12-16T00:06:32;100613.72;;;16.64;100.00
33404;BME280;19751;40.274;18.268;2022-12-16T00:08:59;100606.13;;;16.66;100.00
33404;BME280;19751;40.274;18.268;2022-12-16T00:11:25;100589.00;;;16.65;100.00
33404;BME280;19751;40.274;18.268;2022-12-16T00:13:56;100596.09;;;16.66;100.00
33404;BME280;19751;40.274;18.268;2022-12-16T00:16:22;100604.25;;;16.66;100.00
33404;BME280;19751;40.274;18.268;2022-12-16T00:18:48;100610.16;;;16.63;100.00
33404;BME280;19751;40.274;18.268;2022-12-16T00:21:14;100600.34;;;16.62;100.00
33404;BME280;19751;40.274;18.268;2022-12-16T00:23:40;100575.66;;;16.64;100.00
33404;BME280;19751;40.274;18.268;2022-12-16T00:26:09;100585.47;;;16.65;100.00
33404;BME280;19751;40.274;18.268;2022-12-16T00:28:37;100586.53;;;16.64;100.00
33404;BME280;19751;40.274;18.268;2022-12-16T00:31:03;100587.59;;;16.63;100.00
33404;BME280;19751;40.274;18.268;2022-12-16T00:33:31;100586.16;;;16.60;100.00
33404;BME280;19751;40.274;18.268;2022-12-16T00:35:57;100602.22;;;16.62;100.00
33404;BME280;19751;40.274;18.268;2022-12-16T00:38:29;100592.41;;;16.61;100.00
33404;BME280;19751;40.274;18.268;2022-12-16T00:40:55;100599.50;;;16.62;100.00
33404;BME280;19751;40.274;18.268;2022-12-16T00:43:21;100596.56;;;16.63;100.00
33404;BME280;19751;40.274;18.268;2022-12-16T00:45:47;100610.50;;;16.67;100.00
33404;BME280;19751;40.274;18.268;2022-12-16T00:48:14;100590.44;;;16.68;100.00
33404;BME280;19751;40.274;18.268;2022-12-16T00:50:40;100592.31;;;16.68;100.00
33404;BME280;19751;40.274;18.268;2022-12-16T00:53:09;100588.53;;;16.69;100.00
33404;BME280;19751;40.274;18.268;2022-12-16T00:55:34;100587.47;;;16.70;100.00
33404;BME280;19751;40.274;18.268;2022-12-16T00:58:01;100572.59;;;16.72;100.00
33404;BME280;19751;40.274;18.268;2022-12-16T01:00:36;100587.03;;;16.73;100.00
33404;BME280;19751;40.274;18.268;2022-12-16T01:03:02;100578.03;;;16.72;100.00
33404;BME280;19751;40.274;18.268;2022-12-16T01:05:37;100567.38;;;16.71;100.00
33404;BME280;19751;40.274;18.268;2022-12-16T01:08:03;100581.59;;;16.73;100.00
33404;BME280;19751;40.274;18.268;2022-12-16T01:10:28;100572.59;;;16.72;100.00
33404;BME280;19751;40.274;18.268;2022-12-16T01:13:03;100572.38;;;16.74;100.00
33404;BME280;19751;40.274;18.268;2022-12-16T01:15:28;100575.53;;;16.71;100.00
33404;BME280;19751;40.274;18.268;2022-12-16T01:17:54;100582.44;;;16.73;100.00
33404;BME280;19751;40.274;18.268;2022-12-16T01:20:20;100604.75;;;16.75;100.00
33404;BME280;19751;40.274;18.268;2022-12-16T01:22:45;100597.22;;;16.77;100.00
33404;BME280;19751;40.274;18.268;2022-12-16T01:25:13;100590.25;;;16.81;100.00
33404;BME280;19751;40.274;18.268;2022-12-16T01:27:39;100582.91;;;16.82;100.00
33404;BME280;19751;40.274;18.268;2022-12-16T01:30:05;100585.38;;;16.83;100.00
33404;BME280;19751;40.274;18.268;2022-12-16T01:32:31;100592.72;;;16.83;100.00
33404;BME280;19751;40.274;18.268;2022-12-16T01:34:59;100588.34;;;16.82;100.00
33404;BME280;19751;40.274;18.268;2022-12-16T01:37:33;100594.63;;;16.82;100.00
33404;BME280;19751;40.274;18.268;2022-12-16T01:39:59;100588.72;;;16.85;100.00
33404;BME280;19751;40.274;18.268;2022-12-16T01:42:27;100593.69;;;16.88;100.00
33404;BME280;19751;40.274;18.268;2022-12-16T01:44:55;100607.88;;;16.90;100.00
33404;BME280;19751;40.274;18.268;2022-12-16T01:47:28;100599.97;;;16.89;100.00
33404;BME280;19751;40.274;18.268;2022-12-16T01:50:03;100604.09;;;16.92;100.00
33404;BME280;19751;40.274;18.268;2022-12-16T01:52:36;100605.63;;;16.87;100.00
33404;BME280;19751;40.274;18.268;2022-12-16T01:55:12;100596.63;;;16.87;100.00
33404;BME280;19751;40.274;18.268;2022-12-16T01:57:47;100596.41;;;16.88;100.00
33404;BME280;19751;40.274;18.268;2022-12-16T02:00:17;100593.19;;;16.92;100.00
33404;BME280;19751;40.274;18.268;2022-12-16T02:02:43;100577.75;;;16.92;100.00
33404;BME280;19751;40.274;18.268;2022-12-16T02:05:11;100583.41;;;16.90;100.00
33404;BME280;19751;40.274;18.268;2022-12-16T02:18:49;100577.75;;;16.92;100.00
33404;BME280;19751;40.274;18.268;2022-12-16T02:21:44;100565.53;;;16.95;100.00
33404;BME280;19751;40.274;18.268;2022-12-16T02:30:07;100575.97;;;16.98;100.00
33404;BME280;19751;40.274;18.268;2022-12-16T02:41:20;100540.34;;;16.99;100.00
33404;BME280;19751;40.274;18.268;2022-12-16T02:43:53;100541.41;;;16.98;100.00
33404;BME280;19751;40.274;18.268;2022-12-16T02:46:27;100532.19;;;16.99;100.00
33404;BME280;19751;40.274;18.268;2022-12-16T02:48:56;100543.06;;;16.99;100.00
33404;BME280;19751;40.274;18.268;2022-12-16T02:51:25;100536.78;;;16.99;100.00
33404;BME280;19751;40.274;18.268;2022-12-16T02:53:52;100538.44;;;17.00;100.00
33404;BME280;19751;40.274;18.268;2022-12-16T03:01:56;100539.75;;;16.97;100.00
33404;BME280;19751;40.274;18.268;2022-12-16T03:04:51;100537.88;;;16.98;100.00
33404;BME280;19751;40.274;18.268;2022-12-16T03:07:22;100547.09;;;16.97;100.00
33404;BME280;19751;40.274;18.268;2022-12-16T03:09:52;100544.97;;;16.99;100.00
33404;BME280;19751;40.274;18.268;2022-12-16T03:12:20;100539.25;;;17.00;100.00
33404;BME280;19751;40.274;18.268;2022-12-16T03:14:49;100536.53;;;17.00;100.00
33404;BME280;19751;40.274;18.268;2022-12-16T03:17:16;100530.28;;;17.00;100.00
33404;BME280;19751;40.274;18.268;2022-12-16T03:20:00;100547.44;;;17.00;100.00
33404;BME280;19751;40.274;18.268;2022-12-16T03:22:31;100539.50;;;16.99;100.00
33404;BME280;19751;40.274;18.268;2022-12-16T03:24:58;100526.97;;;16.98;100.00
33404;BME280;19751;40.274;18.268;2022-12-16T03:30:09;100551.00;;;17.01;100.00
33404;BME280;19751;40.274;18.268;2022-12-16T03:32:44;100544.03;;;17.05;100.00
33404;BME280;19751;40.274;18.268;2022-12-16T03:35:26;100566.13;;;17.08;100.00
33404;BME280;19751;40.274;18.268;2022-12-16T03:37:56;100563.19;;;17.10;100.00
33404;BME280;19751;40.274;18.268;2022-12-16T03:40:24;100562.38;;;17.09;100.00
33404;BME280;19751;40.274;18.268;2022-12-16T03:42:52;100566.13;;;17.08;100.00
33404;BME280;19751;40.274;18.268;2022-12-16T03:45:23;100572.63;;;17.07;100.00
33404;BME280;19751;40.274;18.268;2022-12-16T03:47:50;100588.97;;;17.07;100.00
33404;BME280;19751;40.274;18.268;2022-12-16T03:50:18;100593.13;;;17.10;100.00
33404;BME280;19751;40.274;18.268;2022-12-16T03:52:47;100580.59;;;17.09;100.00
33404;BME280;19751;40.274;18.268;2022-12-16T03:55:13;100587.06;;;17.08;100.00
33404;BME280;19751;40.274;18.268;2022-12-16T03:57:39;100587.06;;;17.08;100.00
33404;BME280;19751;40.274;18.268;2022-12-16T04:00:05;100591.47;;;17.09;100.00
33404;BME280;19751;40.274;18.268;2022-12-16T04:02:33;100586.50;;;17.06;100.00
33404;BME280;19751;40.274;18.268;2022-12-16T04:04:58;100585.66;;;17.05;100.00
33404;BME280;19751;40.274;18.268;2022-12-16T04:07:24;100596.31;;;17.07;100.00
33404;BME280;19751;40.274;18.268;2022-12-16T04:09:50;100609.66;;;17.08;100.00
33404;BME280;19751;40.274;18.268;2022-12-16T04:12:17;100598.56;;;17.10;100.00
33404;BME280;19751;40.274;18.268;2022-12-16T04:15:13;100626.84;;;17.09;100.00
33404;BME280;19751;40.274;18.268;2022-12-16T04:17:57;100620.78;;;17.07;100.00
33404;BME280;19751;40.274;18.268;2022-12-16T04:23:29;100625.66;;;17.05;100.00
33404;BME280;19751;40.274;18.268;2022-12-16T04:26:16;100618.06;;;17.07;100.00
33404;BME280;19751;40.274;18.268;2022-12-16T04:28:42;100631.09;;;17.05;100.00
33404;BME280;19751;40.274;18.268;2022-12-16T04:31:08;100625.66;;;17.05;100.00
33404;BME280;19751;40.274;18.268;2022-12-16T04:33:36;100622.94;;;17.05;100.00
33404;BME280;19751;40.274;18.268;2022-12-16T04:36:21;100611.44;;;17.03;100.00
33404;BME280;19751;40.274;18.268;2022-12-16T04:39:05;100614.41;;;17.01;100.00
33404;BME280;19751;40.274;18.268;2022-12-16T04:41:53;100608.97;;;17.01;100.00
33404;BME280;19751;40.274;18.268;2022-12-16T04:44:38;100619.84;;;17.01;100.00
33404;BME280;19751;40.274;18.268;2022-12-16T04:47:22;100623.16;;;17.03;100.00
33404;BME280;19751;40.274;18.268;2022-12-16T04:50:09;100617.72;;;17.03;100.00
33404;BME280;19751;40.274;18.268;2022-12-16T04:52:53;100604.34;;;17.02;100.00
33404;BME280;19751;40.274;18.268;2022-12-16T04:55:37;100616.63;;;17.04;100.00
33404;BME280;19751;40.274;18.268;2022-12-16T04:58:22;100622.94;;;17.05;100.00
33404;BME280;19751;40.274;18.268;2022-12-16T05:01:06;100615.59;;;17.05;100.00
33404;BME280;19751;40.274;18.268;2022-12-16T05:03:50;100612.50;;;17.02;100.00
33404;BME280;19751;40.274;18.268;2022-12-16T05:06:36;100630.25;;;17.04;100.00
33404;BME280;19751;40.274;18.268;2022-12-16T05:09:20;100633.22;;;17.03;100.00
33404;BME280;19751;40.274;18.268;2022-12-16T05:12:05;100616.88;;;17.03;100.00
33404;BME280;19751;40.274;18.268;2022-12-16T05:17:38;100629.41;;;17.04;100.00
33404;BME280;19751;40.274;18.268;2022-12-16T05:20:22;100637.81;;;17.02;100.00
33404;BME280;19751;40.274;18.268;2022-12-16T05:23:13;100631.31;;;17.03;100.00
33404;BME280;19751;40.274;18.268;2022-12-16T05:25:57;100638.91;;;17.01;100.00
33404;BME280;19751;40.274;18.268;2022-12-16T05:28:41;100625.50;;;17.00;100.00
33404;BME280;19751;40.274;18.268;2022-12-16T05:31:27;100645.38;;;17.00;100.00
33404;BME280;19751;40.274;18.268;2022-12-16T05:34:11;100650.81;;;17.00;100.00
33404;BME280;19751;40.274;18.268;2022-12-16T05:36:55;100643.28;;;17.02;100.00
33404;BME280;19751;40.274;18.268;2022-12-16T05:39:39;100656.63;;;17.04;100.00
33404;BME280;19751;40.274;18.268;2022-12-16T05:42:24;100654.75;;;17.04;100.00
33404;BME280;19751;40.274;18.268;2022-12-16T05:45:08;100653.09;;;17.03;100.00
33404;BME280;19751;40.274;18.268;2022-12-16T05:47:52;100654.75;;;17.04;100.00
33404;BME280;19751;40.274;18.268;2022-12-16T05:50:36;100652.63;;;17.06;100.00
33404;BME280;19751;40.274;18.268;2022-12-16T05:53:20;100646.09;;;17.07;100.00
33404;BME280;19751;40.274;18.268;2022-12-16T05:56:04;100645.91;;;17.09;100.00
33404;BME280;19751;40.274;18.268;2022-12-16T05:58:48;100646.94;;;17.08;100.00
33404;BME280;19751;40.274;18.268;2022-12-16T06:01:33;100633.34;;;17.08;100.00
33404;BME280;19751;40.274;18.268;2022-12-16T06:04:23;100645.91;;;17.09;100.00
33404;BME280;19751;40.274;18.268;2022-12-16T06:07:07;100652.63;;;17.06;100.00
33404;BME280;19751;40.274;18.268;2022-12-16T06:09:54;100645.28;;;17.07;100.00
33404;BME280;19751;40.274;18.268;2022-12-16T06:12:38;100659.50;;;17.09;100.00
33404;BME280;19751;40.274;18.268;2022-12-16T06:15:28;100650.28;;;17.10;100.00
33404;BME280;19751;40.274;18.268;2022-12-16T06:18:12;100652.75;;;17.11;100.00
33404;BME280;19751;40.274;18.268;2022-12-16T06:20:58;100645.41;;;17.12;100.00
33404;BME280;19751;40.274;18.268;2022-12-16T06:23:52;100659.38;;;17.15;100.00
33404;BME280;19751;40.274;18.268;2022-12-16T06:26:37;100664.00;;;17.15;100.00
33404;BME280;19751;40.274;18.268;2022-12-16T06:29:21;100649.56;;;17.14;100.00
33404;BME280;19751;40.274;18.268;2022-12-16T06:32:05;100660.81;;;17.18;100.00
33404;BME280;19751;40.274;18.268;2022-12-16T06:34:49;100665.66;;;17.16;100.00
33404;BME280;19751;40.274;18.268;2022-12-16T06:37:33;100667.91;;;17.19;100.00
33404;BME280;19751;40.274;18.268;2022-12-16T06:40:17;100672.28;;;17.20;100.00
33404;BME280;19751;40.274;18.268;2022-12-16T06:43:01;100677.72;;;17.20;100.00
33404;BME280;19751;40.274;18.268;2022-12-16T06:45:45;100663.53;;;17.18;100.00
33404;BME280;19751;40.274;18.268;2022-12-16T06:48:29;100674.53;;;17.23;100.00
33404;BME280;19751;40.274;18.268;2022-12-16T06:51:14;100655.47;;;17.23;100.00
33404;BME280;19751;40.274;18.268;2022-12-16T06:53:58;100665.31;;;17.24;100.00
33404;BME280;19751;40.274;18.268;2022-12-16T06:56:43;100657.75;;;17.26;100.00
33404;BME280;19751;40.274;18.268;2022-12-16T06:59:27;100674.06;;;17.26;100.00
33404;BME280;19751;40.274;18.268;2022-12-16T07:02:11;100679.06;;;17.29;100.00
33404;BME280;19751;40.274;18.268;2022-12-16T07:04:56;100672.28;;;17.32;100.00
33404;BME280;19751;40.274;18.268;2022-12-16T07:07:47;100673.72;;;17.34;100.00
33404;BME280;19751;40.274;18.268;2022-12-16T07:10:31;100678.69;;;17.37;100.00
33404;BME280;19751;40.274;18.268;2022-12-16T07:13:17;100672.78;;;17.40;100.00
33404;BME280;19751;40.274;18.268;2022-12-16T07:16:02;100659.75;;;17.43;100.00
33404;BME280;19751;40.274;18.268;2022-12-16T07:18:46;100659.75;;;17.43;100.00
33404;BME280;19751;40.274;18.268;2022-12-16T07:21:52;100667.44;;;17.46;100.00
33404;BME280;19751;40.274;18.268;2022-12-16T07:24:36;100659.88;;;17.48;100.00
33404;BME280;19751;40.274;18.268;2022-12-16T07:27:31;100675.38;;;17.47;100.00
33404;BME280;19751;40.274;18.268;2022-12-16T07:30:15;100664.25;;;17.49;100.00
33404;BME280;19751;40.274;18.268;2022-12-16T07:33:00;100668.16;;;17.53;100.00
33404;BME280;19751;40.274;18.268;2022-12-16T07:35:45;100673.13;;;17.56;100.00
33404;BME280;19751;40.274;18.268;2022-12-16T07:38:47;100677.75;;;17.55;100.00
33404;BME280;19751;40.274;18.268;2022-12-16T07:41:44;100687.56;;;17.56;100.00
33404;BME280;19751;40.274;18.268;2022-12-16T07:44:29;100673.72;;;17.58;100.00
33404;BME280;19751;40.274;18.268;2022-12-16T07:47:13;100688.75;;;17.60;100.00
33404;BME280;19751;40.274;18.268;2022-12-16T07:49:57;100694.56;;;17.64;100.00
33404;BME280;19751;40.274;18.268;2022-12-16T07:52:41;100658.09;;;17.65;100.00
33404;BME280;19751;40.274;18.268;2022-12-16T07:55:25;100671.25;;;17.68;100.00
33404;BME280;19751;40.274;18.268;2022-12-16T07:58:09;100680.59;;;17.72;100.00
33404;BME280;19751;40.274;18.268;2022-12-16T08:00:53;100692.09;;;17.74;100.00
33404;BME280;19751;40.274;18.268;2022-12-16T08:03:37;100697.06;;;17.77;100.00
33404;BME280;19751;40.274;18.268;2022-12-16T08:06:22;100689.72;;;17.78;100.00
33404;BME280;19751;40.274;18.268;2022-12-16T08:09:06;100683.00;;;17.80;100.00
33404;BME280;19751;40.274;18.268;2022-12-16T08:11:50;100682.28;;;17.85;100.00
33404;BME280;19751;40.274;18.268;2022-12-16T08:14:34;100677.66;;;17.85;100.00
33404;BME280;19751;40.274;18.268;2022-12-16T08:17:20;100675.53;;;17.87;100.00
33404;BME280;19751;40.274;18.268;2022-12-16T08:20:04;100677.75;;;17.91;100.00
33404;BME280;19751;40.274;18.268;2022-12-16T08:23:03;100680.59;;;17.96;100.00
33404;BME280;19751;40.274;18.268;2022-12-16T08:25:47;100671.09;;;17.98;100.00
33404;BME280;19751;40.274;18.268;2022-12-16T08:28:31;100671.22;;;18.03;100.00
33404;BME280;19751;40.274;18.268;2022-12-16T08:31:19;100695.50;;;18.05;100.00
33404;BME280;19751;40.274;18.268;2022-12-16T08:34:04;100682.72;;;18.05;100.00
33404;BME280;19751;40.274;18.268;2022-12-16T08:36:47;100695.88;;;18.08;100.00
33404;BME280;19751;40.274;18.268;2022-12-16T08:39:32;100691.00;;;18.10;100.00
33404;BME280;19751;40.274;18.268;2022-12-16T08:42:18;100687.44;;;18.10;100.00
33404;BME280;19751;40.274;18.268;2022-12-16T08:45:02;100689.09;;;18.11;100.00
33404;BME280;19751;40.274;18.268;2022-12-16T08:47:46;100690.41;;;18.08;100.00
33404;BME280;19751;40.274;18.268;2022-12-16T08:50:30;100687.44;;;18.10;100.00
33404;BME280;19751;40.274;18.268;2022-12-16T08:53:14;100693.47;;;18.12;100.00
33404;BME280;19751;40.274;18.268;2022-12-16T08:56:00;100690.25;;;18.15;100.00
33404;BME280;19751;40.274;18.268;2022-12-16T08:58:54;100684.34;;;18.18;100.00
33404;BME280;19751;40.274;18.268;2022-12-16T09:01:39;100675.91;;;18.20;100.00
33404;BME280;19751;40.274;18.268;2022-12-16T09:04:23;100690.38;;;18.20;100.00
33404;BME280;19751;40.274;18.268;2022-12-16T09:07:07;100693.94;;;18.21;100.00
33404;BME280;19751;40.274;18.268;2022-12-16T09:09:51;100689.88;;;18.23;100.00
33404;BME280;19751;40.274;18.268;2022-12-16T09:12:35;100693.44;;;18.24;100.00
33404;BME280;19751;40.274;18.268;2022-12-16T09:15:19;100670.34;;;18.26;100.00
33404;BME280;19751;40.274;18.268;2022-12-16T09:18:03;100685.72;;;18.32;100.00
33404;BME280;19751;40.274;18.268;2022-12-16T09:20:47;100657.13;;;18.35;100.00
33404;BME280;19751;40.274;18.268;2022-12-16T09:23:35;100656.31;;;18.34;100.00
33404;BME280;19751;40.274;18.268;2022-12-16T09:26:20;100649.31;;;18.38;100.00
33404;BME280;19751;40.274;18.268;2022-12-16T09:29:04;100656.50;;;18.45;100.00
33404;BME280;19751;40.274;18.268;2022-12-16T09:31:48;100662.56;;;18.47;100.00
33404;BME280;19751;40.274;18.268;2022-12-16T09:34:32;100666.78;;;18.54;100.00
33404;BME280;19751;40.274;18.268;2022-12-16T09:37:16;100659.53;;;18.60;100.00
33404;BME280;19751;40.274;18.268;2022-12-16T09:40:00;100654.28;;;18.70;100.00
33404;BME280;19751;40.274;18.268;2022-12-16T09:43:00;100641.91;;;18.79;100.00
33404;BME280;19751;40.274;18.268;2022-12-16T09:51:55;100640.75;;;18.92;100.00
33404;BME280;19751;40.274;18.268;2022-12-16T09:54:44;100646.78;;;18.94;100.00
33404;BME280;19751;40.274;18.268;2022-12-16T09:57:28;100645.47;;;18.97;100.00
33404;BME280;19751;40.274;18.268;2022-12-16T10:00:24;100650.94;;;18.97;100.00
33404;BME280;19751;40.274;18.268;2022-12-16T10:03:39;100638.59;;;18.94;100.00
33404;BME280;19751;40.274;18.268;2022-12-16T10:06:45;100626.78;;;18.88;100.00
33404;BME280;19751;40.274;18.268;2022-12-16T10:12:42;100643.06;;;18.83;100.00
33404;BME280;19751;40.274;18.268;2022-12-16T10:22:07;100634.06;;;18.83;100.00
33404;BME280;19751;40.274;18.268;2022-12-16T10:28:16;100647.38;;;18.79;100.00
33404;BME280;19751;40.274;18.268;2022-12-16T10:31:02;100641.09;;;18.79;100.00
33404;BME280;19751;40.274;18.268;2022-12-16T10:33:52;100650.31;;;18.78;100.00
33404;BME280;19751;40.274;18.268;2022-12-16T10:36:37;100654.81;;;18.84;100.00
33404;BME280;19751;40.274;18.268;2022-12-16T10:39:28;100635.72;;;18.84;100.00
33404;BME280;19751;40.274;18.268;2022-12-16T10:42:24;100655.63;;;18.84;100.00
33404;BME280;19751;40.274;18.268;2022-12-16T10:45:21;100642.81;;;18.85;100.00
33404;BME280;19751;40.274;18.268;2022-12-16T10:48:09;100644.97;;;18.83;100.00
33404;BME280;19751;40.274;18.268;2022-12-16T10:50:53;100645.69;;;18.78;100.00
33404;BME280;19751;40.274;18.268;2022-12-16T10:53:38;100642.72;;;18.80;100.00
33404;BME280;19751;40.274;18.268;2022-12-16T10:59:10;100635.84;;;18.77;100.00
33404;BME280;19751;40.274;18.268;2022-12-16T11:01:57;100641.31;;;18.77;100.00
33404;BME280;19751;40.274;18.268;2022-12-16T11:04:42;100643.81;;;18.79;100.00
33404;BME280;19751;40.274;18.268;2022-12-16T11:10:35;100632.94;;;18.67;100.00
33404;BME280;19751;40.274;18.268;2022-12-16T11:13:35;100628.53;;;18.66;100.00
33404;BME280;19751;40.274;18.268;2022-12-16T11:16:25;100620.34;;;18.66;100.00
33404;BME280;19751;40.274;18.268;2022-12-16T11:19:23;100622.38;;;18.71;100.00
33404;BME280;19751;40.274;18.268;2022-12-16T11:22:20;100610.13;;;18.73;100.00
33404;BME280;19751;40.274;18.268;2022-12-16T11:28:05;100597.09;;;18.75;100.00
33404;BME280;19751;40.274;18.268;2022-12-16T11:30:56;100608.81;;;18.76;100.00
33404;BME280;19751;40.274;18.268;2022-12-16T11:33:43;100596.56;;;18.78;100.00
33404;BME280;19751;40.274;18.268;2022-12-16T11:36:30;100596.34;;;18.80;100.00
33404;BME280;19751;40.274;18.268;2022-12-16T11:39:18;100601.06;;;18.84;100.00
33404;BME280;19751;40.274;18.268;2022-12-16T11:42:05;100603.03;;;18.89;100.00
33404;BME280;19751;40.274;18.268;2022-12-16T11:44:57;100583.13;;;18.88;100.00
33404;BME280;19751;40.274;18.268;2022-12-16T11:47:46;100600.06;;;18.91;100.00
33404;BME280;19751;40.274;18.268;2022-12-16T11:50:35;100610.75;;;18.92;100.00
33404;BME280;19751;40.274;18.268;2022-12-16T11:56:10;100591.38;;;18.94;100.00
33404;BME280;19751;40.274;18.268;2022-12-16T11:59:00;100582.09;;;18.95;100.00
33404;BME280;19751;40.274;18.268;2022-12-16T12:01:54;100576.09;;;18.93;100.00
33404;BME280;19751;40.274;18.268;2022-12-16T12:04:40;100572.19;;;18.88;100.00
33404;BME280;19751;40.274;18.268;2022-12-16T12:13:13;100564.56;;;18.91;100.00
33404;BME280;19751;40.274;18.268;2022-12-16T12:19:20;100579.31;;;18.90;100.00
33404;BME280;19751;40.274;18.268;2022-12-16T12:22:57;100577.91;;;18.87;100.00
33404;BME280;19751;40.274;18.268;2022-12-16T12:41:27;100596.91;;;18.99;100.00
33404;BME280;19751;40.274;18.268;2022-12-16T12:44:35;100595.53;;;18.96;100.00
33404;BME280;19751;40.274;18.268;2022-12-16T12:47:23;100596.50;;;18.90;100.00
33404;BME280;19751;40.274;18.268;2022-12-16T12:50:34;100592.38;;;18.87;100.00
33404;BME280;19751;40.274;18.268;2022-12-16T12:53:41;100592.53;;;18.81;100.00
33404;BME280;19751;40.274;18.268;2022-12-16T12:56:49;100578.81;;;18.76;100.00
33404;BME280;19751;40.274;18.268;2022-12-16T13:05:59;100585.00;;;18.71;100.00
33404;BME280;19751;40.274;18.268;2022-12-16T13:08:52;100579.19;;;18.68;100.00
33404;BME280;19751;40.274;18.268;2022-12-16T13:11:38;100607.28;;;18.68;100.00
33404;BME280;19751;40.274;18.268;2022-12-16T13:17:19;100599.59;;;18.65;100.00
33404;BME280;19751;40.274;18.268;2022-12-16T13:23:40;100590.50;;;18.59;100.00
33404;BME280;19751;40.274;18.268;2022-12-16T13:26:28;100594.78;;;18.55;100.00
33404;BME280;19751;40.274;18.268;2022-12-16T13:29:23;100591.25;;;18.55;100.00
33404;BME280;19751;40.274;18.268;2022-12-16T13:37:53;100576.66;;;18.49;100.00
33404;BME280;19751;40.274;18.268;2022-12-16T13:43:53;100580.00;;;18.51;100.00
33404;BME280;19751;40.274;18.268;2022-12-16T13:52:20;100572.91;;;18.50;100.00
33404;BME280;19751;40.274;18.268;2022-12-16T13:55:16;100564.47;;;18.52;100.00
33404;BME280;19751;40.274;18.268;2022-12-16T13:58:12;100561.72;;;18.52;100.00
33404;BME280;19751;40.274;18.268;2022-12-16T14:01:13;100562.81;;;18.51;100.00
33404;BME280;19751;40.274;18.268;2022-12-16T14:04:10;100538.75;;;18.48;100.00
33404;BME280;19751;40.274;18.268;2022-12-16T14:07:00;100549.91;;;18.46;100.00
33404;BME280;19751;40.274;18.268;2022-12-16T14:09:46;100541.41;;;18.43;100.00
33404;BME280;19751;40.274;18.268;2022-12-16T14:12:47;100557.16;;;18.41;100.00
33404;BME280;19751;40.274;18.268;2022-12-16T14:21:16;100562.69;;;18.29;100.00
33404;BME280;19751;40.274;18.268;2022-12-16T14:24:08;100563.41;;;18.24;100.00
33404;BME280;19751;40.274;18.268;2022-12-16T14:26:55;100571.59;;;18.24;100.00
33404;BME280;19751;40.274;18.268;2022-12-16T14:29:41;100584.03;;;18.20;100.00
33404;BME280;19751;40.274;18.268;2022-12-16T14:32:32;100591.66;;;18.18;100.00
33404;BME280;19751;40.274;18.268;2022-12-16T14:35:23;100579.59;;;18.14;100.00
33404;BME280;19751;40.274;18.268;2022-12-16T14:38:26;100581.47;;;18.13;100.00
33404;BME280;19751;40.274;18.268;2022-12-16T14:41:19;100596.41;;;18.11;100.00
33404;BME280;19751;40.274;18.268;2022-12-16T14:44:05;100598.22;;;18.05;100.00
33404;BME280;19751;40.274;18.268;2022-12-16T14:46:59;100582.94;;;18.04;100.00
33404;BME280;19751;40.274;18.268;2022-12-16T14:49:50;100589.69;;;18.02;100.00
33404;BME280;19751;40.274;18.268;2022-12-16T14:52:45;100584.50;;;18.00;100.00
33404;BME280;19751;40.274;18.268;2022-12-16T14:55:31;100587.44;;;17.99;100.00
33404;BME280;19751;40.274;18.268;2022-12-16T14:58:23;100582.50;;;17.96;100.00
33404;BME280;19751;40.274;18.268;2022-12-16T15:03:59;100596.00;;;17.91;100.00
33404;BME280;19751;40.274;18.268;2022-12-16T15:06:48;100598.97;;;17.89;100.00
33404;BME280;19751;40.274;18.268;2022-12-16T15:09:36;100588.34;;;17.87;100.00
33404;BME280;19751;40.274;18.268;2022-12-16T15:12:27;100591.53;;;17.84;100.00
33404;BME280;19751;40.274;18.268;2022-12-16T15:15:22;100590.09;;;17.82;100.00
33404;BME280;19751;40.274;18.268;2022-12-16T15:18:36;100580.75;;;17.78;100.00
33404;BME280;19751;40.274;18.268;2022-12-16T15:21:18;100578.72;;;17.73;100.00
33404;BME280;19751;40.274;18.268;2022-12-16T15:24:07;100590.09;;;17.70;100.00
33404;BME280;19751;40.274;18.268;2022-12-16T15:29:58;100586.81;;;17.68;100.00
33404;BME280;19751;40.274;18.268;2022-12-16T15:32:50;100570.94;;;17.65;100.00
33404;BME280;19751;40.274;18.268;2022-12-16T15:35:36;100564.41;;;17.66;100.00
33404;BME280;19751;40.274;18.268;2022-12-16T15:44:04;100563.22;;;17.62;100.00
33404;BME280;19751;40.274;18.268;2022-12-16T15:47:05;100579.81;;;17.60;100.00
33404;BME280;19751;40.274;18.268;2022-12-16T15:50:13;100578.41;;;17.58;100.00
33404;BME280;19751;40.274;18.268;2022-12-16T15:53:35;100557.69;;;17.57;100.00
33404;BME280;19751;40.274;18.268;2022-12-16T16:02:34;100568.22;;;17.53;100.00
33404;BME280;19751;40.274;18.268;2022-12-16T16:05:21;100562.78;;;17.53;100.00
33404;BME280;19751;40.274;18.268;2022-12-16T16:08:09;100568.47;;;17.52;100.00
33404;BME280;19751;40.274;18.268;2022-12-16T16:10:54;100563.84;;;17.52;100.00
33404;BME280;19751;40.274;18.268;2022-12-16T16:13:46;100566.00;;;17.50;100.00
33404;BME280;19751;40.274;18.268;2022-12-16T16:16:30;100561.59;;;17.49;100.00